Time;durP1;ratioP1;P1;durP2;ratioP2;P2;SDS_P1;SDS_P2;PMS_P1;PMS_P2;Temp;Humidity;BMP_temperature;BMP_pressure;BME280_temperature;BME280_humidity;BME280_pressure;Samples;Min_cycle;Max_cycle;Signal;HPM_P1;HPM_P2
2023/09/18 00:01:24;;;;;;;1.67;1.57;;;28.40;66.20;;;;;;5116570;27;20456;-69
2023/09/18 00:03:52;;;;;;;1.90;1.80;;;28.30;66.20;;;;;;5114131;27;20438;-72
2023/09/18 00:06:23;;;;;;;1.63;1.53;;;28.30;66.30;;;;;;5111227;28;20485;-71
2023/09/18 00:08:52;;;;;;;3.87;2.13;;;28.30;66.30;;;;;;5108048;28;20536;-69
2023/09/18 00:11:21;;;;;;;1.80;1.70;;;28.30;66.30;;;;;;5112119;27;20486;-70
2023/09/18 00:13:49;;;;;;;2.60;2.50;;;28.30;66.30;;;;;;5112142;28;20451;-71
2023/09/18 00:16:17;;;;;;;1.57;1.47;;;28.30;66.30;;;;;;5113682;28;20504;-72
2023/09/18 00:18:46;;;;;;;2.47;2.30;;;28.30;66.30;;;;;;5113753;28;20439;-68
2023/09/18 00:21:14;;;;;;;1.83;1.73;;;28.30;66.30;;;;;;5094572;28;20489;-70
2023/09/18 00:23:44;;;;;;;1.60;1.50;;;28.30;66.30;;;;;;5113454;28;20433;-69
2023/09/18 00:26:12;;;;;;;1.90;1.80;;;28.30;66.30;;;;;;5117892;27;20453;-69
2023/09/18 00:28:43;;;;;;;1.60;1.50;;;28.30;66.40;;;;;;5113890;27;20947;-69
2023/09/18 00:31:11;;;;;;;1.60;1.50;;;28.30;66.30;;;;;;5111732;27;20566;-69
2023/09/18 00:33:39;;;;;;;1.87;1.77;;;28.30;66.40;;;;;;5085039;28;21007;-68
2023/09/18 00:36:07;;;;;;;1.60;1.50;;;28.30;66.40;;;;;;5102407;27;20505;-68
2023/09/18 00:38:35;;;;;;;1.90;1.70;;;28.20;66.40;;;;;;5133864;27;20419;-68
2023/09/18 00:41:05;;;;;;;1.90;1.80;;;28.20;66.40;;;;;;5134223;27;20433;-69
2023/09/18 00:43:34;;;;;;;1.53;1.43;;;28.20;66.50;;;;;;5132921;27;20420;-71
2023/09/18 00:46:03;;;;;;;2.17;2.00;;;28.20;66.50;;;;;;5131294;27;20441;-69
2023/09/18 00:48:31;;;;;;;1.80;1.70;;;28.20;66.50;;;;;;5117485;27;20948;-69
2023/09/18 00:51:00;;;;;;;1.93;1.83;;;28.20;66.50;;;;;;5113312;28;20523;-69
2023/09/18 00:53:28;;;;;;;1.83;1.73;;;28.20;66.50;;;;;;5103958;27;20812;-69
2023/09/18 00:56:01;;;;;;;1.70;1.60;;;28.20;66.50;;;;;;5111359;27;20442;-70
2023/09/18 00:58:30;;;;;;;1.73;1.63;;;28.20;66.50;;;;;;5093629;28;20865;-69
2023/09/18 01:00:59;;;;;;;2.00;1.90;;;28.20;66.60;;;;;;5096472;27;20435;-68
2023/09/18 01:03:27;;;;;;;1.80;1.70;;;28.20;66.60;;;;;;5099537;28;20447;-69
2023/09/18 01:05:56;;;;;;;2.00;1.90;;;28.20;66.60;;;;;;5107946;27;20613;-70
2023/09/18 01:08:25;;;;;;;1.90;1.80;;;28.20;66.60;;;;;;5094520;28;20553;-70
2023/09/18 01:11:15;;;;;;;1.83;1.73;;;28.10;66.60;;;;;;5102753;27;20460;-69
2023/09/18 01:13:52;;;;;;;1.80;1.70;;;28.10;66.60;;;;;;5132570;27;20451;-68
2023/09/18 01:16:26;;;;;;;1.77;1.67;;;28.10;66.60;;;;;;5110376;28;20446;-71
2023/09/18 01:18:54;;;;;;;1.97;1.87;;;28.10;66.70;;;;;;5116259;27;20460;-69
2023/09/18 01:21:22;;;;;;;2.10;2.00;;;28.10;66.80;;;;;;5075899;28;20848;-70
2023/09/18 01:23:52;;;;;;;1.87;1.77;;;28.10;66.80;;;;;;5081139;28;20493;-69
2023/09/18 01:26:20;;;;;;;1.53;1.43;;;28.10;66.80;;;;;;5082923;28;20513;-71
2023/09/18 01:28:48;;;;;;;2.00;1.80;;;28.10;66.80;;;;;;5108467;28;20462;-70
2023/09/18 01:31:17;;;;;;;1.57;1.47;;;28.10;66.80;;;;;;5112205;28;20458;-72
2023/09/18 01:33:48;;;;;;;1.70;1.60;;;28.10;66.90;;;;;;5112320;28;20459;-68
2023/09/18 01:36:18;;;;;;;1.80;1.70;;;28.10;66.90;;;;;;5095420;28;20546;-68
2023/09/18 01:38:47;;;;;;;1.70;1.60;;;28.10;66.90;;;;;;5090779;28;20448;-68
2023/09/18 01:41:17;;;;;;;1.50;1.40;;;28.10;66.90;;;;;;5090538;28;20534;-68
2023/09/18 01:43:45;;;;;;;2.17;1.97;;;28.10;66.90;;;;;;5093924;28;20464;-68
2023/09/18 01:46:14;;;;;;;1.80;1.70;;;28.00;66.90;;;;;;5112154;28;20443;-69
2023/09/18 01:48:47;;;;;;;2.00;1.90;;;28.00;66.90;;;;;;5112099;28;20488;-68
2023/09/18 01:51:16;;;;;;;1.87;1.77;;;28.00;66.90;;;;;;5112567;28;20521;-68
2023/09/18 01:53:45;;;;;;;1.47;1.37;;;28.00;67.00;;;;;;5109560;28;20519;-68
2023/09/18 01:56:13;;;;;;;1.90;1.53;;;28.00;67.00;;;;;;5095201;28;20454;-68
2023/09/18 01:58:42;;;;;;;1.50;1.40;;;28.00;67.00;;;;;;5090078;28;20460;-69
2023/09/18 02:01:11;;;;;;;2.00;1.90;;;28.00;67.00;;;;;;5091788;28;20493;-69
2023/09/18 02:03:41;;;;;;;1.63;1.53;;;28.00;67.00;;;;;;5097767;28;20466;-68
2023/09/18 02:06:29;;;;;;;1.63;1.57;;;28.00;67.00;;;;;;5090300;28;20535;-68
2023/09/18 02:08:58;;;;;;;1.83;1.67;;;28.00;67.00;;;;;;5094810;28;20470;-69
2023/09/18 02:11:27;;;;;;;1.73;1.63;;;28.00;67.00;;;;;;5093663;28;20452;-74
2023/09/18 02:13:57;;;;;;;1.90;1.80;;;28.00;67.00;;;;;;5102047;28;21003;-70
2023/09/18 02:16:26;;;;;;;1.70;1.60;;;28.00;67.10;;;;;;5089996;28;20528;-68
2023/09/18 02:18:56;;;;;;;1.80;1.70;;;28.00;67.00;;;;;;5106011;28;21002;-68
2023/09/18 02:21:25;;;;;;;1.90;1.80;;;28.00;67.10;;;;;;5117733;28;20466;-69
2023/09/18 02:23:54;;;;;;;1.53;1.43;;;28.00;67.10;;;;;;5132265;28;20479;-71
2023/09/18 02:26:23;;;;;;;2.00;1.90;;;28.00;67.10;;;;;;5116522;28;20495;-70
2023/09/18 02:28:54;;;;;;;1.20;1.20;;;28.00;67.10;;;;;;5111713;28;20969;-68
2023/09/18 02:31:23;;;;;;;1.30;1.30;;;27.90;67.10;;;;;;5090924;28;20461;-69
2023/09/18 02:33:52;;;;;;;1.70;1.60;;;27.90;67.10;;;;;;5095172;28;20436;-69
2023/09/18 02:36:20;;;;;;;2.30;2.20;;;27.90;67.10;;;;;;5132067;27;20413;-68
2023/09/18 02:38:49;;;;;;;1.93;1.83;;;27.90;67.10;;;;;;5136063;27;20776;-69
2023/09/18 02:41:19;;;;;;;1.70;1.60;;;27.90;67.10;;;;;;5118091;27;20432;-69
2023/09/18 02:43:47;;;;;;;2.00;1.80;;;27.90;67.20;;;;;;5105536;28;20455;-68
2023/09/18 02:46:15;;;;;;;1.50;1.40;;;27.90;67.20;;;;;;5115556;28;21003;-69
2023/09/18 02:48:45;;;;;;;1.97;1.70;;;27.90;67.20;;;;;;5097487;28;20468;-69
2023/09/18 02:51:13;;;;;;;1.97;1.87;;;27.90;67.20;;;;;;5122478;27;20454;-70
2023/09/18 02:53:41;;;;;;;1.80;1.70;;;27.90;67.20;;;;;;5107530;28;20465;-68
2023/09/18 02:56:10;;;;;;;1.87;1.77;;;27.90;67.20;;;;;;5096478;28;20481;-68
2023/09/18 02:58:39;;;;;;;2.03;1.93;;;27.90;67.20;;;;;;5096191;28;20440;-68
2023/09/18 03:01:08;;;;;;;1.90;1.80;;;27.90;67.20;;;;;;5078186;28;20870;-68
2023/09/18 03:03:37;;;;;;;1.73;1.63;;;27.90;67.20;;;;;;5085247;28;20463;-69
2023/09/18 03:06:06;;;;;;;2.33;1.90;;;27.90;67.30;;;;;;5115304;28;20423;-68
2023/09/18 03:08:35;;;;;;;2.00;1.90;;;27.90;67.30;;;;;;5109068;27;20469;-70
2023/09/18 03:11:12;;;;;;;1.80;1.70;;;27.90;67.30;;;;;;5117986;27;21152;-69
2023/09/18 03:13:46;;;;;;;1.90;1.80;;;27.80;67.30;;;;;;5116627;27;21214;-68
2023/09/18 03:16:16;;;;;;;1.93;1.83;;;27.80;67.30;;;;;;5116339;27;20549;-69
2023/09/18 03:18:45;;;;;;;1.80;1.70;;;27.90;67.30;;;;;;5101213;27;20464;-68
2023/09/18 03:21:15;;;;;;;2.13;2.03;;;27.80;67.30;;;;;;5096379;28;20803;-69
2023/09/18 03:23:43;;;;;;;1.67;1.57;;;27.80;67.40;;;;;;5096698;28;20454;-73
2023/09/18 03:26:12;;;;;;;1.40;1.30;;;27.80;67.40;;;;;;5103050;27;20460;-69
2023/09/18 03:28:40;;;;;;;1.80;1.70;;;27.80;67.40;;;;;;5107832;27;20497;-68
2023/09/18 03:31:08;;;;;;;1.70;1.60;;;27.80;67.40;;;;;;5117077;27;20785;-69
2023/09/18 03:33:37;;;;;;;2.03;1.93;;;27.80;67.40;;;;;;5135090;27;20758;-68
2023/09/18 03:36:06;;;;;;;1.60;1.50;;;27.80;67.40;;;;;;5114629;27;20453;-68
2023/09/18 03:38:38;;;;;;;1.60;1.50;;;27.80;67.40;;;;;;5099951;28;20500;-69
2023/09/18 03:41:08;;;;;;;1.80;1.70;;;27.80;67.40;;;;;;5108102;28;20511;-68
2023/09/18 03:43:36;;;;;;;1.83;1.73;;;27.80;67.40;;;;;;5113605;28;20425;-68
2023/09/18 03:46:05;;;;;;;1.80;1.70;;;27.80;67.50;;;;;;5102596;27;20453;-68
2023/09/18 03:48:38;;;;;;;1.80;1.70;;;27.80;67.50;;;;;;5102480;28;20799;-68
2023/09/18 03:51:07;;;;;;;1.67;1.57;;;27.80;67.50;;;;;;5111219;28;20929;-68
2023/09/18 03:53:37;;;;;;;2.17;1.53;;;27.80;67.50;;;;;;5093861;28;20903;-71
2023/09/18 03:56:05;;;;;;;1.80;1.70;;;27.80;67.50;;;;;;5118594;27;20821;-70
2023/09/18 03:58:34;;;;;;;2.30;2.20;;;27.80;67.50;;;;;;5105374;27;20922;-69
2023/09/18 04:01:04;;;;;;;1.60;1.50;;;27.80;67.50;;;;;;5084181;28;20480;-69
2023/09/18 04:03:32;;;;;;;1.40;1.30;;;27.70;67.50;;;;;;5108140;27;20969;-69
2023/09/18 04:06:00;;;;;;;1.70;1.60;;;27.70;67.50;;;;;;5134626;27;20787;-68
2023/09/18 04:08:30;;;;;;;1.77;1.67;;;27.70;67.50;;;;;;5128983;27;20835;-71
2023/09/18 04:11:04;;;;;;;1.70;1.60;;;27.70;67.60;;;;;;5100661;27;20892;-69
2023/09/18 04:13:33;;;;;;;1.87;1.77;;;27.70;67.60;;;;;;5095046;28;20490;-69
2023/09/18 04:16:03;;;;;;;1.50;1.40;;;27.70;67.60;;;;;;5111919;27;20455;-71
2023/09/18 04:18:32;;;;;;;1.60;1.50;;;27.70;67.60;;;;;;5085656;28;20458;-69
2023/09/18 04:21:01;;;;;;;1.70;1.60;;;27.70;67.60;;;;;;5100683;28;20457;-68
2023/09/18 04:23:29;;;;;;;1.57;1.47;;;27.70;67.60;;;;;;5083753;28;20489;-70
2023/09/18 04:25:58;;;;;;;1.73;1.63;;;27.70;67.60;;;;;;5094021;28;20445;-69
2023/09/18 04:28:28;;;;;;;1.40;1.30;;;27.70;67.60;;;;;;5101646;28;20460;-70
2023/09/18 04:30:56;;;;;;;2.00;1.90;;;27.70;67.60;;;;;;5090527;28;20492;-71
2023/09/18 04:33:28;;;;;;;1.50;1.40;;;27.70;67.60;;;;;;5092788;28;20505;-70
2023/09/18 04:35:57;;;;;;;1.70;1.60;;;27.70;67.30;;;;;;5095293;28;20456;-70
2023/09/18 04:38:25;;;;;;;1.43;1.33;;;27.70;67.50;;;;;;5109622;28;20458;-69
2023/09/18 04:40:59;;;;;;;1.90;1.80;;;27.70;67.60;;;;;;5101637;28;20540;-70
2023/09/18 04:43:30;;;;;;;2.07;1.97;;;27.70;67.70;;;;;;5108363;28;20440;-70
2023/09/18 04:46:00;;;;;;;1.70;1.60;;;27.70;67.70;;;;;;5093085;27;21043;-69
2023/09/18 04:48:31;;;;;;;2.10;2.00;;;27.70;67.70;;;;;;5098917;27;20460;-69
2023/09/18 04:51:00;;;;;;;1.97;1.87;;;27.70;67.70;;;;;;5096044;27;20821;-69
2023/09/18 04:53:29;;;;;;;1.80;1.70;;;27.70;67.70;;;;;;5090537;28;20458;-70
2023/09/18 04:55:57;;;;;;;1.83;1.73;;;27.60;67.70;;;;;;5080889;28;20481;-71
2023/09/18 04:58:26;;;;;;;1.80;1.70;;;27.60;67.70;;;;;;5101497;27;20951;-73
2023/09/18 05:00:57;;;;;;;2.03;1.93;;;27.70;67.70;;;;;;5085837;28;20787;-73
2023/09/18 05:03:29;;;;;;;1.60;1.50;;;27.60;67.70;;;;;;5094569;28;20872;-72
2023/09/18 05:05:58;;;;;;;1.70;1.60;;;27.60;67.70;;;;;;5107161;28;20541;-75
2023/09/18 05:08:26;;;;;;;1.97;1.87;;;27.60;67.70;;;;;;5100365;27;20523;-71
2023/09/18 05:10:55;;;;;;;1.60;1.50;;;27.60;67.80;;;;;;5102364;28;20487;-73
2023/09/18 05:13:23;;;;;;;1.77;1.67;;;27.60;67.80;;;;;;5095109;28;20452;-75
2023/09/18 05:15:51;;;;;;;1.53;1.43;;;27.60;67.80;;;;;;5098052;28;20449;-72
2023/09/18 05:18:21;;;;;;;1.70;1.60;;;27.60;67.80;;;;;;5106511;28;20982;-71
2023/09/18 05:20:49;;;;;;;1.80;1.70;;;27.60;67.80;;;;;;5108212;28;20448;-71
2023/09/18 05:23:18;;;;;;;1.57;1.47;;;27.60;67.80;;;;;;5082685;28;20453;-72
2023/09/18 05:25:47;;;;;;;1.77;1.67;;;27.60;67.80;;;;;;5097231;27;20451;-73
2023/09/18 05:28:15;;;;;;;1.40;1.40;;;27.60;67.80;;;;;;5106964;28;20621;-71
2023/09/18 05:30:43;;;;;;;2.07;1.97;;;27.60;67.80;;;;;;5108058;28;20475;-74
2023/09/18 05:33:13;;;;;;;1.67;1.57;;;27.60;67.80;;;;;;5111893;27;20440;-71
2023/09/18 05:35:44;;;;;;;1.80;1.70;;;27.60;67.80;;;;;;5107069;28;20977;-71
2023/09/18 05:38:14;;;;;;;1.33;1.30;;;27.60;67.80;;;;;;5107091;28;20437;-72
2023/09/18 05:40:43;;;;;;;1.97;1.87;;;27.60;67.80;;;;;;5106507;28;20455;-74
2023/09/18 05:43:12;;;;;;;1.60;1.50;;;27.60;67.80;;;;;;5106705;27;20529;-73
2023/09/18 05:45:40;;;;;;;1.70;1.40;;;27.60;67.80;;;;;;5107447;27;20483;-71
2023/09/18 05:48:09;;;;;;;1.67;1.57;;;27.60;67.90;;;;;;5111568;28;20437;-71
2023/09/18 05:50:37;;;;;;;1.73;1.63;;;27.60;67.90;;;;;;5110901;28;20458;-72
2023/09/18 05:53:07;;;;;;;1.90;1.80;;;27.60;67.80;;;;;;5108901;28;20456;-71
2023/09/18 05:55:35;;;;;;;1.70;1.60;;;27.60;67.80;;;;;;5109050;28;20444;-71
2023/09/18 05:58:06;;;;;;;1.80;1.70;;;27.60;67.90;;;;;;5105631;28;20550;-72
2023/09/18 06:00:35;;;;;;;1.80;1.70;;;27.60;67.90;;;;;;5105658;28;20441;-73
2023/09/18 06:03:05;;;;;;;2.10;2.00;;;27.60;67.90;;;;;;5109660;28;20454;-72
2023/09/18 06:05:34;;;;;;;1.90;1.80;;;27.60;67.90;;;;;;5097646;28;20447;-73
2023/09/18 06:08:03;;;;;;;1.57;1.47;;;27.60;67.80;;;;;;5109421;28;20465;-76
2023/09/18 06:10:32;;;;;;;1.90;1.80;;;27.60;67.80;;;;;;5107710;28;20466;-72
2023/09/18 06:13:03;;;;;;;1.70;1.60;;;27.60;67.70;;;;;;5110627;28;20434;-71
2023/09/18 06:15:33;;;;;;;1.80;1.70;;;27.60;67.70;;;;;;5111804;28;20445;-71
2023/09/18 06:18:01;;;;;;;1.90;1.80;;;27.60;67.80;;;;;;5109836;28;20459;-71
2023/09/18 06:20:29;;;;;;;1.63;1.53;;;27.60;67.80;;;;;;5111345;28;20450;-71
2023/09/18 06:22:58;;;;;;;1.33;1.30;;;27.60;67.80;;;;;;5111157;28;20470;-71
2023/09/18 06:25:26;;;;;;;1.37;1.27;;;27.60;67.80;;;;;;5108212;28;20520;-72
2023/09/18 06:27:55;;;;;;;1.57;1.47;;;27.60;67.70;;;;;;5110458;28;20431;-72
2023/09/18 06:30:24;;;;;;;1.60;1.50;;;27.60;67.70;;;;;;5109200;28;20514;-72
2023/09/18 06:32:52;;;;;;;1.63;1.53;;;27.60;67.70;;;;;;5092756;28;20799;-71
2023/09/18 06:35:21;;;;;;;1.80;1.70;;;27.60;67.70;;;;;;5108721;28;20433;-72
2023/09/18 06:37:49;;;;;;;1.80;1.70;;;27.60;67.70;;;;;;5109172;28;20433;-71
2023/09/18 06:40:18;;;;;;;1.80;1.70;;;27.60;67.70;;;;;;5096289;28;20449;-72
2023/09/18 06:42:46;;;;;;;1.80;1.70;;;27.70;67.60;;;;;;5110166;28;20486;-71
2023/09/18 06:45:16;;;;;;;1.63;1.53;;;27.70;67.60;;;;;;5111242;28;20429;-72
2023/09/18 06:47:44;;;;;;;1.40;1.30;;;27.60;67.60;;;;;;5111068;28;20434;-71
2023/09/18 06:50:14;;;;;;;1.83;1.73;;;27.60;67.60;;;;;;5102220;28;20551;-79
2023/09/18 06:52:43;;;;;;;1.80;1.70;;;27.60;67.70;;;;;;5096127;28;20475;-79
2023/09/18 06:55:11;;;;;;;2.43;2.23;;;27.60;67.80;;;;;;5102214;28;20443;-78
2023/09/18 06:57:40;;;;;;;3.07;2.87;;;27.60;67.80;;;;;;5103460;28;20453;-78
2023/09/18 07:00:10;;;;;;;2.90;2.70;;;27.60;67.60;;;;;;5108143;28;20483;-79
2023/09/18 07:02:39;;;;;;;3.20;3.00;;;27.60;67.70;;;;;;5108540;28;20479;-79
2023/09/18 07:05:09;;;;;;;3.33;3.13;;;27.60;67.70;;;;;;5111353;28;20501;-78
2023/09/18 07:07:37;;;;;;;3.37;3.17;;;27.60;67.60;;;;;;5105567;28;20441;-78
2023/09/18 07:10:06;;;;;;;3.83;3.53;;;27.60;67.60;;;;;;5111159;28;20477;-79
2023/09/18 07:12:36;;;;;;;3.43;3.13;;;27.60;67.60;;;;;;5110543;28;20560;-79
2023/09/18 07:15:05;;;;;;;3.83;3.20;;;27.60;67.50;;;;;;5108855;28;20438;-79
2023/09/18 07:17:34;;;;;;;4.70;3.43;;;27.70;67.60;;;;;;5110763;28;20444;-79
2023/09/18 07:20:13;;;;;;;3.93;3.63;;;27.70;67.60;;;;;;5109097;28;20764;-79
2023/09/18 07:22:48;;;;;;;4.87;4.57;;;27.70;67.60;;;;;;5108456;28;20461;-79
2023/09/18 07:25:17;;;;;;;4.53;4.13;;;27.60;67.60;;;;;;5112388;28;20467;-79
2023/09/18 07:27:45;;;;;;;4.03;3.57;;;27.70;67.60;;;;;;5114004;28;20450;-79
2023/09/18 07:30:16;;;;;;;3.60;3.40;;;27.70;67.50;;;;;;5093213;28;20451;-80
2023/09/18 07:32:44;;;;;;;4.40;4.00;;;27.70;67.50;;;;;;5108805;28;20475;-79
2023/09/18 07:35:14;;;;;;;4.20;3.90;;;27.70;67.50;;;;;;5110803;28;20951;-79
2023/09/18 07:37:45;;;;;;;3.40;3.20;;;27.70;67.50;;;;;;5112734;28;20443;-79
2023/09/18 07:40:13;;;;;;;4.10;3.80;;;27.70;67.40;;;;;;5098445;28;20531;-79
2023/09/18 07:42:43;;;;;;;5.43;4.63;;;27.70;67.40;;;;;;5097245;28;20460;-79
2023/09/18 07:45:12;;;;;;;4.07;3.80;;;27.70;67.40;;;;;;5104932;28;20466;-79
2023/09/18 07:47:40;;;;;;;4.37;3.97;;;27.70;67.40;;;;;;5112428;28;20440;-79
2023/09/18 07:50:09;;;;;;;3.90;3.60;;;27.70;67.40;;;;;;5114315;28;20474;-79
2023/09/18 07:52:38;;;;;;;4.60;4.30;;;27.70;67.40;;;;;;5113816;28;20466;-79
2023/09/18 07:55:08;;;;;;;4.50;4.10;;;27.70;67.40;;;;;;5094537;28;20423;-79
2023/09/18 07:57:37;;;;;;;4.50;4.10;;;27.70;67.40;;;;;;5108894;28;20449;-74
2023/09/18 08:00:12;;;;;;;4.83;4.13;;;27.70;67.40;;;;;;5094129;27;20476;-79
2023/09/18 08:02:41;;;;;;;4.83;3.83;;;27.70;67.40;;;;;;5113274;27;20951;-79
2023/09/18 08:05:11;;;;;;;3.97;3.67;;;27.70;67.80;;;;;;5109442;28;20438;-79
2023/09/18 08:07:40;;;;;;;3.80;3.50;;;27.70;67.80;;;;;;5112541;27;20457;-79
2023/09/18 08:10:10;;;;;;;4.77;4.37;;;27.70;67.80;;;;;;5110594;27;20449;-77
2023/09/18 08:12:38;;;;;;;5.43;4.03;;;27.70;67.80;;;;;;5112053;27;20507;-80
2023/09/18 08:15:08;;;;;;;3.77;3.57;;;27.70;67.80;;;;;;5108858;28;20438;-78
2023/09/18 08:17:36;;;;;;;4.50;3.77;;;27.70;67.90;;;;;;5109529;28;20465;-79
2023/09/18 08:20:11;;;;;;;5.90;3.90;;;27.70;67.80;;;;;;5113248;28;20437;-80
2023/09/18 08:22:41;;;;;;;4.90;4.33;;;27.80;67.80;;;;;;5112532;28;20474;-79
2023/09/18 08:25:11;;;;;;;4.60;4.20;;;27.80;67.80;;;;;;5108841;27;20458;-77
2023/09/18 08:27:41;;;;;;;6.10;4.57;;;27.80;67.80;;;;;;5113003;27;20448;-79
2023/09/18 08:30:11;;;;;;;4.27;3.90;;;27.80;67.80;;;;;;5110927;27;20450;-78
2023/09/18 08:32:40;;;;;;;4.50;4.10;;;27.80;67.80;;;;;;5109407;27;20793;-79
2023/09/18 08:35:10;;;;;;;4.07;3.87;;;27.80;67.80;;;;;;5110261;28;20957;-79
2023/09/18 08:37:38;;;;;;;4.23;3.93;;;27.80;67.80;;;;;;5111059;27;20535;-79
2023/09/18 08:40:10;;;;;;;4.30;3.90;;;27.80;67.80;;;;;;5111402;27;20451;-78
2023/09/18 08:42:40;;;;;;;5.50;3.83;;;27.80;67.70;;;;;;5107817;27;20482;-79
2023/09/18 08:45:11;;;;;;;4.50;4.10;;;27.90;67.70;;;;;;5109710;28;20467;-79
2023/09/18 08:47:40;;;;;;;4.47;4.00;;;27.90;67.70;;;;;;5108897;27;21158;-79
2023/09/18 08:50:10;;;;;;;3.83;3.53;;;27.90;67.60;;;;;;5106963;28;20442;-76
2023/09/18 08:52:39;;;;;;;4.00;3.70;;;27.90;67.60;;;;;;5110784;28;21000;-77
2023/09/18 08:55:10;;;;;;;4.20;3.90;;;27.90;67.50;;;;;;5107866;28;20455;-77
2023/09/18 08:57:40;;;;;;;4.33;4.03;;;27.90;67.50;;;;;;5090968;28;20454;-79
2023/09/18 09:00:11;;;;;;;4.37;4.07;;;27.90;67.40;;;;;;5086844;27;20460;-79
2023/09/18 09:02:40;;;;;;;3.80;3.43;;;28.00;67.40;;;;;;5091003;28;20449;-77
2023/09/18 09:05:08;;;;;;;4.57;4.27;;;28.00;67.40;;;;;;5110638;27;20924;-77
2023/09/18 09:07:36;;;;;;;4.00;3.70;;;28.00;67.30;;;;;;5110339;28;20544;-77
2023/09/18 09:10:05;;;;;;;4.40;4.00;;;28.00;67.30;;;;;;5109788;27;20446;-78
2023/09/18 09:12:54;;;;;;;4.37;3.97;;;28.00;67.30;;;;;;5109752;28;20482;-78
2023/09/18 09:15:23;;;;;;;3.90;3.60;;;28.00;67.30;;;;;;5107484;27;20926;-82
2023/09/18 09:17:53;;;;;;;4.70;3.70;;;28.00;67.30;;;;;;5110190;28;20803;-78
2023/09/18 09:20:21;;;;;;;4.60;4.20;;;28.00;67.30;;;;;;5110749;28;20450;-78
2023/09/18 09:22:50;;;;;;;3.70;3.50;;;28.10;67.30;;;;;;5110813;28;20473;-83
2023/09/18 09:25:28;;;;;;;4.40;4.03;;;28.10;67.30;;;;;;5112970;27;20468;-79
2023/09/18 09:27:58;;;;;;;3.63;3.13;;;28.00;67.30;;;;;;5109366;28;20443;-79
2023/09/18 09:30:28;;;;;;;4.30;4.00;;;28.10;67.30;;;;;;5106924;28;20437;-77
2023/09/18 09:32:58;;;;;;;3.43;3.20;;;28.10;67.30;;;;;;5110208;28;20489;-76
2023/09/18 09:35:28;;;;;;;3.73;3.43;;;28.10;67.30;;;;;;5108096;28;20489;-78
2023/09/18 09:38:00;;;;;;;3.57;3.37;;;28.10;67.30;;;;;;5109197;27;20466;-79
2023/09/18 09:40:32;;;;;;;5.60;3.40;;;28.00;67.20;;;;;;5110036;28;20546;-78
2023/09/18 09:43:01;;;;;;;5.63;3.80;;;28.10;67.20;;;;;;5110064;28;20434;-77
2023/09/18 09:45:35;;;;;;;4.10;3.80;;;28.00;67.20;;;;;;5111127;28;20439;-78
2023/09/18 09:48:05;;;;;;;3.30;3.10;;;28.10;67.20;;;;;;5103621;28;20443;-78
2023/09/18 09:50:34;;;;;;;3.97;3.67;;;28.10;67.20;;;;;;5105120;28;20538;-78
2023/09/18 09:53:03;;;;;;;4.20;3.87;;;28.10;67.10;;;;;;5106752;28;20518;-76
2023/09/18 09:55:33;;;;;;;4.77;3.70;;;28.10;67.20;;;;;;5104936;28;20459;-76
2023/09/18 09:58:04;;;;;;;4.60;4.00;;;28.10;67.30;;;;;;5110628;28;20476;-77
2023/09/18 10:00:40;;;;;;;3.60;3.30;;;28.10;67.30;;;;;;5091137;28;20455;-77
2023/09/18 10:03:09;;;;;;;4.07;3.67;;;28.10;67.30;;;;;;5107144;28;20498;-78
2023/09/18 10:05:39;;;;;;;6.83;3.80;;;28.10;67.30;;;;;;5107397;28;20455;-78
2023/09/18 10:08:08;;;;;;;4.00;3.60;;;28.00;67.30;;;;;;5110410;27;20503;-77
2023/09/18 10:10:39;;;;;;;3.40;3.20;;;28.00;67.40;;;;;;5108261;28;20453;-77
2023/09/18 10:13:18;;;;;;;3.60;3.30;;;28.00;67.40;;;;;;5098268;28;20461;-80
2023/09/18 10:15:49;;;;;;;4.57;3.90;;;28.00;67.30;;;;;;5109110;27;20918;-81
2023/09/18 10:18:23;;;;;;;3.40;3.20;;;28.00;67.20;;;;;;5109068;28;20943;-81
2023/09/18 10:20:57;;;;;;;3.90;3.50;;;28.00;67.30;;;;;;5112347;28;20430;-81
2023/09/18 10:23:40;;;;;;;3.57;3.27;;;28.00;67.20;;;;;;5112600;28;20439;-81
2023/09/18 10:26:10;;;;;;;3.77;3.47;;;28.00;67.20;;;;;;5121868;28;20500;-81
2023/09/18 10:28:41;;;;;;;3.30;3.00;;;28.00;67.20;;;;;;5092170;28;20443;-82
2023/09/18 10:31:11;;;;;;;4.13;3.73;;;28.00;67.20;;;;;;5101125;28;20451;-81
2023/09/18 10:33:40;;;;;;;3.30;3.00;;;27.90;67.20;;;;;;5105147;28;20548;-80
2023/09/18 10:36:10;;;;;;;3.93;3.53;;;27.90;67.30;;;;;;5093456;28;20447;-81
2023/09/18 10:38:40;;;;;;;3.87;3.57;;;27.90;67.20;;;;;;5108725;28;20445;-81
2023/09/18 10:41:11;;;;;;;3.73;3.43;;;27.90;67.20;;;;;;5109338;28;20446;-81
2023/09/18 10:43:41;;;;;;;6.43;4.43;;;27.90;67.20;;;;;;5116514;28;20532;-81
2023/09/18 10:46:09;;;;;;;7.10;6.40;;;27.90;67.40;;;;;;5108292;28;20786;-81
2023/09/18 10:48:40;;;;;;;9.77;7.03;;;27.90;67.60;;;;;;5104670;28;20455;-81
2023/09/18 10:51:13;;;;;;;10.20;7.33;;;27.90;67.50;;;;;;5106007;28;20456;-82
2023/09/18 10:53:42;;;;;;;7.27;6.30;;;27.90;67.50;;;;;;5106201;28;20485;-81
2023/09/18 10:56:11;;;;;;;7.70;5.93;;;27.80;67.60;;;;;;5107979;28;20493;-81
2023/09/18 10:58:39;;;;;;;10.43;6.03;;;27.80;67.70;;;;;;5109179;28;20449;-81
2023/09/18 11:01:12;;;;;;;7.00;5.53;;;27.80;67.60;;;;;;5107745;27;20500;-81
2023/09/18 11:03:41;;;;;;;8.20;5.10;;;27.80;67.70;;;;;;5114012;27;20441;-81
2023/09/18 11:06:14;;;;;;;7.00;5.60;;;27.70;67.70;;;;;;5099157;27;20896;-81
2023/09/18 11:08:47;;;;;;;9.40;5.60;;;27.70;67.80;;;;;;5107825;27;20448;-81
2023/09/18 11:11:20;;;;;;;6.40;5.30;;;27.70;67.80;;;;;;5104245;27;20495;-81
2023/09/18 11:13:53;;;;;;;8.53;5.20;;;27.70;67.80;;;;;;5104527;28;20534;-82
2023/09/18 11:16:38;;;;;;;9.93;5.40;;;27.70;67.90;;;;;;5104703;28;20447;-81
2023/09/18 11:19:11;;;;;;;6.03;4.47;;;27.70;67.80;;;;;;5104207;28;20442;-81
2023/09/18 11:21:40;;;;;;;7.70;4.90;;;27.70;67.90;;;;;;5098926;28;20493;-81
2023/09/18 11:24:16;;;;;;;6.50;4.57;;;27.60;67.90;;;;;;5101782;28;20452;-81
2023/09/18 11:26:47;;;;;;;5.13;4.70;;;27.60;68.00;;;;;;5105833;28;20784;-81
2023/09/18 11:29:18;;;;;;;7.77;4.90;;;27.60;68.00;;;;;;5111589;28;20468;-81
2023/09/18 11:31:50;;;;;;;4.50;3.70;;;27.60;68.10;;;;;;5112693;28;20445;-82
2023/09/18 11:34:23;;;;;;;7.27;5.03;;;27.60;68.00;;;;;;5107471;28;20553;-82
2023/09/18 11:36:52;;;;;;;4.30;3.80;;;27.50;68.10;;;;;;5109294;28;20482;-82
2023/09/18 11:39:37;;;;;;;5.23;4.73;;;27.50;68.10;;;;;;5111522;28;20511;-83
2023/09/18 11:42:10;;;;;;;5.30;4.80;;;27.50;68.20;;;;;;5110659;28;20502;-83
2023/09/18 11:44:42;;;;;;;4.17;3.77;;;27.50;68.20;;;;;;5108620;28;20909;-81
2023/09/18 11:47:16;;;;;;;5.70;4.63;;;27.50;68.30;;;;;;5109839;28;20494;-80
2023/09/18 11:49:54;;;;;;;6.17;4.53;;;27.50;68.30;;;;;;5110231;27;20452;-80
2023/09/18 11:52:24;;;;;;;6.73;4.13;;;27.50;68.30;;;;;;5104482;28;20466;-73
2023/09/18 11:54:54;;;;;;;3.90;3.20;;;27.50;68.30;;;;;;5082896;28;20483;-72
2023/09/18 11:57:23;;;;;;;5.77;3.97;;;27.50;68.70;;;;;;5101257;28;20545;-75
2023/09/18 11:59:52;;;;;;;5.63;3.80;;;27.50;68.80;;;;;;5111513;27;20461;-73
2023/09/18 12:02:34;;;;;;;4.90;4.00;;;27.50;68.90;;;;;;5089941;28;20450;-75
2023/09/18 12:05:11;;;;;;;4.70;4.23;;;27.50;69.00;;;;;;5106781;27;20480;-74
2023/09/18 12:07:41;;;;;;;6.30;5.00;;;27.50;69.10;;;;;;5101892;28;21183;-75
2023/09/18 12:10:10;;;;;;;10.00;4.60;;;27.50;69.10;;;;;;5109178;28;20937;-71
2023/09/18 12:12:39;;;;;;;6.43;4.50;;;27.50;69.10;;;;;;5116007;27;20445;-73
2023/09/18 12:15:08;;;;;;;4.10;3.80;;;27.50;69.20;;;;;;5112372;27;20467;-70
2023/09/18 12:17:38;;;;;;;5.80;3.90;;;27.50;69.20;;;;;;5110784;28;20555;-71
2023/09/18 12:20:08;;;;;;;5.80;3.60;;;27.60;69.20;;;;;;5116780;27;20457;-72
2023/09/18 12:22:36;;;;;;;6.37;3.50;;;27.60;69.30;;;;;;5114543;27;20469;-73
2023/09/18 12:25:12;;;;;;;12.10;5.17;;;27.60;69.40;;;;;;5108564;27;20442;-71
2023/09/18 12:27:44;;;;;;;5.70;3.87;;;27.60;69.30;;;;;;5110865;28;20443;-71
2023/09/18 12:30:14;;;;;;;5.80;4.17;;;27.70;69.30;;;;;;5105021;27;20926;-72
2023/09/18 12:32:45;;;;;;;6.10;3.70;;;27.70;69.20;;;;;;5110364;28;21304;-72
2023/09/18 12:35:15;;;;;;;9.60;3.30;;;27.70;69.30;;;;;;5112041;28;20978;-72
2023/09/18 12:37:44;;;;;;;7.70;4.07;;;27.70;69.30;;;;;;5110581;28;21004;-71
2023/09/18 12:40:25;;;;;;;7.30;4.33;;;27.70;69.30;;;;;;5111978;27;20441;-71
2023/09/18 12:42:56;;;;;;;5.47;3.83;;;27.70;69.40;;;;;;5092223;28;20820;-72
2023/09/18 12:45:25;;;;;;;5.73;3.80;;;27.70;69.40;;;;;;5110824;28;20469;-71
2023/09/18 12:47:56;;;;;;;4.40;3.80;;;27.70;69.30;;;;;;5107910;28;20438;-72
2023/09/18 12:50:26;;;;;;;4.90;3.97;;;27.70;69.40;;;;;;5110579;28;20510;-70
2023/09/18 12:52:54;;;;;;;4.33;3.97;;;27.80;69.30;;;;;;5110064;28;20502;-70
2023/09/18 12:55:24;;;;;;;7.10;3.83;;;27.80;69.30;;;;;;5104741;28;20456;-70
2023/09/18 12:57:53;;;;;;;6.47;3.20;;;27.80;69.30;;;;;;5107452;28;20453;-70
2023/09/18 13:00:26;;;;;;;6.97;3.40;;;27.80;69.30;;;;;;5108681;28;20459;-70